Time;durP1;ratioP1;P1;durP2;ratioP2;P2;SDS_P1;SDS_P2;PMS_P1;PMS_P2;Temp;Humidity;BMP_temperature;BMP_pressure;BME280_temperature;BME280_humidity;BME280_pressure;Samples;Min_cycle;Max_cycle;Signal;HPM_P1;HPM_P2
2023/08/27 00:02:16;;;;;;;2.85;2.17;;;26.50;99.90;;;;;;6249547;27;89018;-70
2023/08/27 00:05:19;;;;;;;4.38;2.00;;;26.40;99.90;;;;;;6241649;27;90036;-70
2023/08/27 00:08:21;;;;;;;3.90;2.20;;;26.40;99.90;;;;;;6253155;27;89015;-71
2023/08/27 00:11:23;;;;;;;2.50;2.10;;;26.40;99.90;;;;;;6242285;27;88009;-71
2023/08/27 00:14:25;;;;;;;2.38;2.10;;;26.40;99.90;;;;;;6253884;27;89166;-70
2023/08/27 00:17:27;;;;;;;3.72;2.30;;;26.50;99.90;;;;;;6245755;27;89365;-71
2023/08/27 00:20:33;;;;;;;2.47;2.10;;;26.40;99.90;;;;;;6245747;27;88449;-71
2023/08/27 00:23:35;;;;;;;2.28;1.88;;;26.40;99.90;;;;;;6255161;27;89326;-71
2023/08/27 00:26:37;;;;;;;2.55;2.30;;;26.40;99.90;;;;;;6254925;27;89124;-71
2023/08/27 00:29:39;;;;;;;2.97;2.22;;;26.40;99.90;;;;;;6252310;27;90285;-70
2023/08/27 00:32:41;;;;;;;2.90;2.17;;;26.40;99.90;;;;;;6244273;27;88356;-71
2023/08/27 00:35:53;;;;;;;2.28;2.08;;;26.40;99.90;;;;;;6247651;27;91813;-70
2023/08/27 00:38:55;;;;;;;3.20;2.10;;;26.40;99.90;;;;;;6244439;27;89378;-70
2023/08/27 00:41:57;;;;;;;3.17;1.90;;;26.40;99.90;;;;;;6243757;27;89005;-70
2023/08/27 00:44:59;;;;;;;2.55;1.73;;;26.40;99.90;;;;;;6247940;27;89072;-70
2023/08/27 00:48:01;;;;;;;2.40;2.13;;;26.40;99.90;;;;;;6245584;27;89130;-70
2023/08/27 00:51:05;;;;;;;2.42;2.00;;;26.40;99.90;;;;;;6249214;27;88460;-70
2023/08/27 00:54:08;;;;;;;3.33;2.13;;;26.30;99.90;;;;;;6253037;27;88780;-70
2023/08/27 00:57:10;;;;;;;3.20;2.33;;;26.30;99.90;;;;;;6246742;27;90661;-71
2023/08/27 01:00:12;;;;;;;3.35;1.90;;;26.40;99.90;;;;;;6241508;27;89218;-70
2023/08/27 01:03:14;;;;;;;2.30;1.98;;;26.30;99.90;;;;;;6250258;27;89074;-71
2023/08/27 01:06:19;;;;;;;3.25;2.20;;;26.30;99.90;;;;;;6254458;27;89150;-71
2023/08/27 01:09:29;;;;;;;3.78;2.10;;;26.30;99.90;;;;;;6250912;27;89254;-71
2023/08/27 01:12:40;;;;;;;2.88;1.90;;;26.30;99.90;;;;;;6250304;27;89228;-71
2023/08/27 01:15:42;;;;;;;2.83;2.20;;;26.30;99.90;;;;;;6242571;27;89009;-70
2023/08/27 01:18:45;;;;;;;2.63;2.03;;;26.30;99.90;;;;;;6241909;27;88118;-70
2023/08/27 01:21:49;;;;;;;2.10;1.90;;;26.30;99.90;;;;;;6248375;27;88315;-70
2023/08/27 01:24:52;;;;;;;2.95;1.80;;;26.30;99.90;;;;;;6245586;27;89113;-70
2023/08/27 01:27:59;;;;;;;3.10;2.00;;;26.30;99.90;;;;;;6245736;27;89116;-70
2023/08/27 01:31:05;;;;;;;4.35;2.20;;;26.30;99.90;;;;;;6245050;27;89958;-70
2023/08/27 01:34:09;;;;;;;2.92;2.17;;;26.30;99.90;;;;;;6238515;27;89030;-71
2023/08/27 01:37:13;;;;;;;2.47;2.10;;;26.30;99.90;;;;;;6241180;27;89274;-70
2023/08/27 01:40:18;;;;;;;4.20;2.40;;;26.30;99.90;;;;;;6250926;27;89355;-71
2023/08/27 01:43:20;;;;;;;2.72;2.10;;;26.30;99.90;;;;;;6249739;27;89008;-71
2023/08/27 01:46:22;;;;;;;2.30;2.10;;;26.30;99.90;;;;;;6240147;27;89096;-70
2023/08/27 01:49:24;;;;;;;2.50;2.17;;;26.30;99.90;;;;;;6251390;27;89275;-71
2023/08/27 01:52:27;;;;;;;2.72;2.22;;;26.30;99.90;;;;;;6249669;27;88335;-71
2023/08/27 01:55:30;;;;;;;2.60;2.00;;;26.20;99.90;;;;;;6242923;27;89032;-71
2023/08/27 01:58:32;;;;;;;2.22;1.92;;;26.30;99.90;;;;;;6250220;27;89094;-71
2023/08/27 02:01:34;;;;;;;3.22;2.25;;;26.30;99.90;;;;;;6240050;27;89935;-70
2023/08/27 02:04:37;;;;;;;3.50;2.40;;;26.30;99.90;;;;;;6239426;27;89371;-71
2023/08/27 02:07:41;;;;;;;2.17;1.98;;;26.20;99.90;;;;;;6234601;27;87675;-71
2023/08/27 02:10:43;;;;;;;2.40;1.98;;;26.20;99.90;;;;;;6235308;28;89009;-71
2023/08/27 02:13:45;;;;;;;3.95;2.28;;;26.20;99.90;;;;;;6247537;27;89197;-71
2023/08/27 02:16:47;;;;;;;4.05;2.25;;;26.30;99.90;;;;;;6232806;27;89078;-70
2023/08/27 02:19:49;;;;;;;2.78;2.47;;;26.20;99.90;;;;;;6247485;27;89074;-71
2023/08/27 02:22:52;;;;;;;4.32;2.50;;;26.30;99.90;;;;;;6242715;27;88307;-71
2023/08/27 02:25:54;;;;;;;2.85;2.42;;;26.20;99.90;;;;;;6243967;28;89658;-71
2023/08/27 02:28:56;;;;;;;3.30;2.60;;;26.20;99.90;;;;;;6240831;28;89050;-71
2023/08/27 02:31:58;;;;;;;3.75;3.10;;;26.20;99.90;;;;;;6246045;28;90228;-71
2023/08/27 02:35:00;;;;;;;4.88;2.78;;;26.20;99.90;;;;;;6237881;28;88992;-71
2023/08/27 02:38:04;;;;;;;2.88;2.60;;;26.20;99.90;;;;;;6237827;27;89007;-71
2023/08/27 02:41:06;;;;;;;3.78;2.60;;;26.20;99.90;;;;;;6240945;28;90425;-71
2023/08/27 02:44:08;;;;;;;3.47;2.65;;;26.20;99.90;;;;;;6237683;28;89014;-71
2023/08/27 02:47:10;;;;;;;3.53;2.78;;;26.20;99.90;;;;;;6242719;28;89413;-71
2023/08/27 02:50:12;;;;;;;4.05;2.78;;;26.20;99.90;;;;;;6246750;28;89286;-71
2023/08/27 02:53:15;;;;;;;3.10;2.80;;;26.20;99.90;;;;;;6244697;28;88699;-71
2023/08/27 02:56:17;;;;;;;3.42;2.95;;;26.10;99.90;;;;;;6239747;28;89087;-71
2023/08/27 02:59:19;;;;;;;4.20;3.15;;;26.10;99.90;;;;;;6242537;28;89062;-71
2023/08/27 03:02:21;;;;;;;3.50;2.90;;;26.10;99.90;;;;;;6244218;27;89960;-72
2023/08/27 03:05:23;;;;;;;3.25;2.95;;;26.10;99.90;;;;;;6250497;28;89103;-71
2023/08/27 03:08:26;;;;;;;3.80;2.72;;;26.10;99.90;;;;;;6245663;28;89281;-71
2023/08/27 03:11:28;;;;;;;3.78;3.00;;;26.10;99.90;;;;;;6243622;28;89135;-71
2023/08/27 03:14:30;;;;;;;3.70;3.05;;;26.10;99.90;;;;;;6246823;28;89114;-71
2023/08/27 03:17:32;;;;;;;4.53;2.60;;;26.10;99.90;;;;;;6245378;28;89091;-71
2023/08/27 03:20:34;;;;;;;4.45;2.55;;;26.10;99.90;;;;;;6240615;28;89314;-71
2023/08/27 03:23:37;;;;;;;3.20;2.70;;;26.10;99.90;;;;;;6220854;28;88073;-71
2023/08/27 03:26:39;;;;;;;4.55;2.92;;;26.10;99.90;;;;;;6220041;28;90054;-71
2023/08/27 03:29:41;;;;;;;3.65;2.75;;;26.10;99.90;;;;;;6224949;28;89313;-71
2023/08/27 03:32:43;;;;;;;3.88;2.90;;;26.10;99.90;;;;;;6229557;28;90573;-71
2023/08/27 03:35:51;;;;;;;5.25;2.83;;;26.10;99.90;;;;;;6224066;28;88971;-71
2023/08/27 03:38:55;;;;;;;2.70;2.50;;;26.10;99.90;;;;;;6227918;28;88318;-71
2023/08/27 03:41:57;;;;;;;2.83;2.58;;;26.10;99.90;;;;;;6228527;28;89116;-71
2023/08/27 03:44:59;;;;;;;3.08;2.45;;;26.00;99.90;;;;;;6225309;28;89090;-70
2023/08/27 03:48:01;;;;;;;3.35;2.63;;;26.10;99.90;;;;;;6231193;28;89167;-70
2023/08/27 03:51:04;;;;;;;3.28;2.70;;;26.00;99.90;;;;;;6220552;28;89120;-70
2023/08/27 03:54:08;;;;;;;4.38;3.08;;;26.00;99.90;;;;;;6223635;28;88753;-70
2023/08/27 03:57:10;;;;;;;5.70;3.55;;;26.00;99.90;;;;;;6224367;28;89009;-71
2023/08/27 04:00:13;;;;;;;3.20;2.80;;;26.00;99.90;;;;;;6218202;28;89499;-70
2023/08/27 04:03:15;;;;;;;2.97;2.67;;;25.90;99.90;;;;;;6229913;28;90148;-70
2023/08/27 04:06:17;;;;;;;2.90;2.70;;;25.90;99.90;;;;;;6220836;28;89227;-71
2023/08/27 04:09:21;;;;;;;3.30;3.00;;;25.90;99.90;;;;;;6230147;28;89004;-71
2023/08/27 04:12:23;;;;;;;5.40;4.22;;;25.90;99.90;;;;;;6219577;28;88195;-71
2023/08/27 04:15:27;;;;;;;6.95;5.30;;;25.90;99.90;;;;;;6228137;28;87869;-70
2023/08/27 04:18:29;;;;;;;6.60;5.28;;;25.80;99.90;;;;;;6228320;28;89190;-70
2023/08/27 04:21:31;;;;;;;6.47;5.50;;;25.80;99.90;;;;;;6231219;28;89108;-71
2023/08/27 04:24:34;;;;;;;6.35;5.72;;;25.80;99.90;;;;;;6245226;27;88327;-70
2023/08/27 04:27:36;;;;;;;7.10;6.35;;;25.80;99.90;;;;;;6244490;28;89079;-71
2023/08/27 04:30:39;;;;;;;6.65;5.85;;;25.70;99.90;;;;;;6238932;27;89024;-71
2023/08/27 04:33:41;;;;;;;6.75;6.15;;;25.70;99.90;;;;;;6240636;28;90027;-71
2023/08/27 04:36:43;;;;;;;7.53;6.63;;;25.70;99.90;;;;;;6235162;28;89032;-71
2023/08/27 04:39:47;;;;;;;6.53;5.93;;;25.70;99.90;;;;;;6180014;28;89217;-71
2023/08/27 04:42:49;;;;;;;6.75;5.85;;;25.70;99.90;;;;;;6242793;28;89292;-71
2023/08/27 04:45:51;;;;;;;7.85;6.95;;;25.70;99.90;;;;;;6244111;28;89415;-71
2023/08/27 04:48:52;;;;;;;7.70;6.47;;;25.60;99.90;;;;;;6248917;28;89045;-71
2023/08/27 04:51:54;;;;;;;7.53;5.88;;;25.60;99.90;;;;;;6245076;28;89091;-71
2023/08/27 04:54:58;;;;;;;9.95;7.25;;;25.60;99.90;;;;;;6253164;28;88434;-71
2023/08/27 04:58:00;;;;;;;8.15;7.35;;;25.60;99.90;;;;;;6239987;27;89116;-71
2023/08/27 05:01:02;;;;;;;8.20;6.85;;;25.60;99.90;;;;;;6254541;28;89379;-71
2023/08/27 05:04:04;;;;;;;8.88;7.97;;;25.60;99.90;;;;;;6243755;28;90331;-70
2023/08/27 05:07:06;;;;;;;7.28;6.57;;;25.50;99.90;;;;;;6248682;28;89064;-70
2023/08/27 05:10:10;;;;;;;8.38;7.53;;;25.60;99.90;;;;;;6238547;27;89127;-70
2023/08/27 05:13:12;;;;;;;8.02;7.18;;;25.60;99.90;;;;;;6248345;28;89412;-70
2023/08/27 05:16:13;;;;;;;7.35;6.75;;;25.60;99.90;;;;;;6246019;28;89010;-70
2023/08/27 05:19:15;;;;;;;8.07;7.00;;;25.60;99.90;;;;;;6244571;27;89138;-71
2023/08/27 05:22:17;;;;;;;8.43;7.63;;;25.60;99.90;;;;;;6248962;28;87905;-71
2023/08/27 05:25:21;;;;;;;8.00;7.20;;;25.60;99.90;;;;;;6242678;28;88287;-71
2023/08/27 05:28:23;;;;;;;8.00;7.20;;;25.60;99.90;;;;;;6249430;28;89097;-70
2023/08/27 05:31:25;;;;;;;7.95;7.25;;;25.60;99.90;;;;;;6245797;28;90096;-71
2023/08/27 05:34:28;;;;;;;11.77;10.55;;;25.60;99.90;;;;;;6237753;27;89655;-70
2023/08/27 05:37:30;;;;;;;44.30;31.73;;;25.60;99.90;;;;;;6252131;28;89052;-69
2023/08/27 05:40:33;;;;;;;16.23;14.45;;;25.60;99.90;;;;;;6238727;27;88086;-70
2023/08/27 05:43:35;;;;;;;22.05;15.30;;;25.70;99.90;;;;;;6244942;28;89414;-70
2023/08/27 05:46:37;;;;;;;17.92;15.52;;;25.70;99.90;;;;;;6231268;28;90875;-70
2023/08/27 05:49:39;;;;;;;19.08;16.45;;;25.70;99.90;;;;;;6240521;28;88986;-69
2023/08/27 05:52:41;;;;;;;21.60;17.27;;;25.80;99.90;;;;;;6237857;28;89024;-68
2023/08/27 05:55:46;;;;;;;19.00;17.00;;;25.70;99.90;;;;;;6240630;28;87198;-68
2023/08/27 05:58:48;;;;;;;20.83;18.08;;;25.80;99.90;;;;;;6238252;28;89677;-67
2023/08/27 06:01:50;;;;;;;20.65;17.88;;;25.70;99.90;;;;;;6243365;28;89299;-68
2023/08/27 06:04:52;;;;;;;22.77;18.52;;;25.80;99.90;;;;;;6241517;28;87977;-68
2023/08/27 06:07:54;;;;;;;20.00;17.90;;;25.80;99.90;;;;;;6242989;28;89076;-68
2023/08/27 06:10:57;;;;;;;19.58;17.48;;;25.70;99.90;;;;;;6244107;28;89056;-68
2023/08/27 06:13:59;;;;;;;19.73;17.63;;;25.80;99.90;;;;;;6233909;28;89001;-68
2023/08/27 06:17:01;;;;;;;19.17;16.90;;;25.70;99.90;;;;;;6235520;28;89122;-67
2023/08/27 06:20:04;;;;;;;17.83;16.02;;;25.70;99.90;;;;;;6242439;28;89074;-68
2023/08/27 06:23:07;;;;;;;17.85;15.93;;;25.80;99.90;;;;;;6248272;28;88946;-68
2023/08/27 06:26:10;;;;;;;17.23;15.52;;;25.70;99.90;;;;;;6254808;28;88239;-67
2023/08/27 06:29:12;;;;;;;16.45;14.85;;;25.80;99.90;;;;;;6241115;28;89169;-68
2023/08/27 06:32:15;;;;;;;16.88;14.40;;;25.70;99.90;;;;;;6231905;28;89048;-68
2023/08/27 06:35:17;;;;;;;15.38;13.93;;;25.70;99.90;;;;;;6237338;28;89014;-68
2023/08/27 06:38:19;;;;;;;14.60;13.23;;;25.80;99.90;;;;;;6247584;28;89298;-68
2023/08/27 06:41:22;;;;;;;13.77;12.40;;;25.80;99.90;;;;;;6243047;27;88733;-68
2023/08/27 06:44:24;;;;;;;14.55;13.05;;;25.70;99.90;;;;;;6249631;27;87922;-68
2023/08/27 06:47:26;;;;;;;13.85;12.55;;;25.70;99.90;;;;;;6243553;27;89099;-67
2023/08/27 06:50:28;;;;;;;13.00;11.80;;;25.70;99.90;;;;;;6249125;27;89050;-68
2023/08/27 06:53:30;;;;;;;13.25;12.05;;;25.70;99.90;;;;;;6252114;28;89318;-67
2023/08/27 06:56:34;;;;;;;12.90;11.73;;;25.80;99.90;;;;;;6243306;28;87241;-68
2023/08/27 06:59:36;;;;;;;12.70;11.20;;;25.70;99.90;;;;;;6242507;27;89323;-68
2023/08/27 07:02:38;;;;;;;11.82;10.73;;;25.70;99.90;;;;;;6249031;27;89023;-67
2023/08/27 07:05:40;;;;;;;12.77;11.52;;;25.70;99.90;;;;;;6237126;28;90217;-68
2023/08/27 07:08:42;;;;;;;12.23;11.02;;;25.70;99.90;;;;;;6242197;28;89090;-67
2023/08/27 07:11:45;;;;;;;12.35;11.15;;;25.70;99.90;;;;;;6241981;28;89299;-68
2023/08/27 07:14:47;;;;;;;12.70;11.40;;;25.70;99.90;;;;;;6246488;28;89083;-67
2023/08/27 07:17:49;;;;;;;11.40;10.18;;;25.70;99.90;;;;;;6248594;27;89074;-68
2023/08/27 07:20:52;;;;;;;10.90;9.80;;;25.70;99.90;;;;;;6245190;28;88961;-68
2023/08/27 07:23:54;;;;;;;10.35;9.35;;;25.70;99.90;;;;;;6255383;27;88229;-68
2023/08/27 07:26:58;;;;;;;10.38;9.43;;;25.70;99.90;;;;;;6241414;28;88321;-68
2023/08/27 07:29:59;;;;;;;10.48;9.48;;;25.70;99.90;;;;;;6246809;28;89366;-67
2023/08/27 07:33:01;;;;;;;10.27;9.27;;;25.70;99.90;;;;;;6246575;28;89035;-68
2023/08/27 07:36:04;;;;;;;10.82;9.73;;;25.70;99.90;;;;;;6242897;28;89969;-68
2023/08/27 07:39:06;;;;;;;9.70;8.70;;;25.70;99.90;;;;;;6243470;28;88029;-67
2023/08/27 07:42:09;;;;;;;9.07;8.00;;;25.70;99.90;;;;;;6254887;27;92412;-68
2023/08/27 07:45:11;;;;;;;8.90;8.02;;;25.70;99.90;;;;;;6246727;28;88034;-68
2023/08/27 07:48:13;;;;;;;9.60;8.70;;;25.70;99.90;;;;;;6248526;28;89031;-68
2023/08/27 07:51:15;;;;;;;8.38;7.57;;;25.70;99.90;;;;;;6256356;27;89463;-68
2023/08/27 07:54:17;;;;;;;9.13;8.23;;;25.70;99.90;;;;;;6253544;28;89047;-67
2023/08/27 07:57:21;;;;;;;8.60;7.80;;;25.70;99.90;;;;;;6248413;27;88701;-68
2023/08/27 08:00:23;;;;;;;7.85;7.15;;;25.70;99.90;;;;;;6242022;28;89184;-68
2023/08/27 08:03:25;;;;;;;8.23;7.53;;;25.70;99.90;;;;;;6250123;28;89060;-68
2023/08/27 08:06:27;;;;;;;8.30;7.20;;;25.70;99.90;;;;;;6237615;28;89910;-68
2023/08/27 08:09:29;;;;;;;7.60;6.90;;;25.70;99.90;;;;;;6233007;28;89888;-68
2023/08/27 08:12:32;;;;;;;6.65;6.05;;;25.60;99.90;;;;;;6250552;28;89086;-68
2023/08/27 08:15:34;;;;;;;6.60;6.00;;;25.60;99.90;;;;;;6248802;28;89036;-68
2023/08/27 08:18:36;;;;;;;6.00;5.47;;;25.60;99.90;;;;;;6254409;27;87952;-68
2023/08/27 08:21:38;;;;;;;6.22;5.63;;;25.70;99.90;;;;;;6239889;28;89378;-68
2023/08/27 08:24:40;;;;;;;5.47;4.97;;;25.60;99.90;;;;;;6253903;27;89573;-68
2023/08/27 08:27:43;;;;;;;5.65;4.78;;;25.60;99.90;;;;;;6250827;28;88414;-68
2023/08/27 08:30:48;;;;;;;5.15;4.72;;;25.60;99.90;;;;;;6244555;28;89067;-67
2023/08/27 08:33:49;;;;;;;5.60;4.50;;;25.60;99.90;;;;;;6255267;27;89086;-67
2023/08/27 08:36:52;;;;;;;4.72;4.32;;;25.60;99.90;;;;;;6237353;28;89978;-67
2023/08/27 08:39:54;;;;;;;4.53;4.13;;;25.60;99.90;;;;;;6246664;27;89362;-67
2023/08/27 08:42:59;;;;;;;4.68;4.20;;;25.60;99.90;;;;;;6256659;27;89099;-67
2023/08/27 08:46:04;;;;;;;4.18;3.88;;;25.60;99.90;;;;;;6245733;28;87968;-67
2023/08/27 08:49:14;;;;;;;3.88;3.58;;;25.60;99.90;;;;;;6248328;28;89003;-68
2023/08/27 08:52:19;;;;;;;3.67;3.35;;;25.60;99.90;;;;;;6245042;28;89054;-68
2023/08/27 08:55:23;;;;;;;3.95;3.53;;;25.60;99.90;;;;;;6243853;28;89449;-68
2023/08/27 08:58:31;;;;;;;3.50;3.20;;;25.50;99.90;;;;;;6243637;27;88488;-68
2023/08/27 09:01:33;;;;;;;3.03;2.72;;;25.60;99.90;;;;;;6255174;28;89056;-68
2023/08/27 09:04:36;;;;;;;3.42;3.05;;;25.60;99.90;;;;;;6254961;28;89032;-68
2023/08/27 09:07:39;;;;;;;3.20;2.83;;;25.50;99.90;;;;;;6244806;28;89009;-68
2023/08/27 09:10:41;;;;;;;3.45;2.60;;;25.50;99.90;;;;;;6250115;28;90205;-68
2023/08/27 09:13:45;;;;;;;3.50;2.30;;;25.50;99.90;;;;;;6257008;28;89086;-68
2023/08/27 09:16:46;;;;;;;2.58;2.30;;;25.60;99.90;;;;;;6244519;28;89054;-68
2023/08/27 09:19:50;;;;;;;2.30;2.10;;;25.60;99.90;;;;;;6246204;27;89067;-68
2023/08/27 09:22:52;;;;;;;2.20;2.00;;;25.60;99.90;;;;;;6255519;27;88925;-68
2023/08/27 09:25:56;;;;;;;2.40;2.20;;;25.50;99.90;;;;;;6250275;28;89027;-68
2023/08/27 09:29:01;;;;;;;1.90;1.80;;;25.60;99.90;;;;;;6241747;28;89144;-68
2023/08/27 09:32:03;;;;;;;2.30;2.10;;;25.60;99.90;;;;;;6232101;28;89420;-68
2023/08/27 09:35:07;;;;;;;2.40;2.08;;;25.50;99.90;;;;;;6254255;28;89195;-68
2023/08/27 09:38:13;;;;;;;2.03;1.88;;;25.50;99.90;;;;;;6245960;28;90268;-68
2023/08/27 09:41:17;;;;;;;1.90;1.80;;;25.50;99.90;;;;;;6239661;28;88648;-68
2023/08/27 09:44:25;;;;;;;2.03;1.83;;;25.50;99.90;;;;;;6248086;28;88548;-68
2023/08/27 09:47:31;;;;;;;1.88;1.70;;;25.50;99.90;;;;;;6239208;28;89232;-68
2023/08/27 09:50:33;;;;;;;2.00;1.80;;;25.50;99.90;;;;;;6249936;28;88172;-68
2023/08/27 09:53:36;;;;;;;1.73;1.60;;;25.50;99.90;;;;;;6250321;28;89045;-68
2023/08/27 09:56:38;;;;;;;1.60;1.50;;;25.50;99.90;;;;;;6240100;28;88929;-68
2023/08/27 09:59:45;;;;;;;1.55;1.45;;;25.50;99.90;;;;;;6253710;28;88524;-67
2023/08/27 10:02:50;;;;;;;1.70;1.60;;;25.50;99.90;;;;;;6242068;27;89078;-67
2023/08/27 10:05:52;;;;;;;2.30;1.50;;;25.50;99.90;;;;;;6250011;28;89320;-67
2023/08/27 10:08:55;;;;;;;1.52;1.42;;;25.50;99.90;;;;;;6238071;28;90165;-67
2023/08/27 10:11:58;;;;;;;1.60;1.50;;;25.50;99.90;;;;;;6242844;28;89517;-68
2023/08/27 10:15:04;;;;;;;1.80;1.65;;;25.50;99.90;;;;;;6249987;28;89068;-67
2023/08/27 10:18:12;;;;;;;1.65;1.42;;;25.50;99.90;;;;;;6231396;28;89124;-67
2023/08/27 10:21:14;;;;;;;1.40;1.30;;;25.50;99.90;;;;;;6247589;28;89020;-68
2023/08/27 10:24:17;;;;;;;1.55;1.30;;;25.50;99.90;;;;;;6253402;27;89276;-67
2023/08/27 10:27:19;;;;;;;1.70;1.60;;;25.50;99.90;;;;;;6253713;27;88132;-68
2023/08/27 10:30:23;;;;;;;1.48;1.38;;;25.50;99.90;;;;;;6248604;27;88390;-67
2023/08/27 10:33:25;;;;;;;1.63;1.52;;;25.50;99.90;;;;;;6247094;27;87942;-68
2023/08/27 10:36:34;;;;;;;1.60;1.50;;;25.50;99.90;;;;;;6241435;27;89379;-67
2023/08/27 10:39:38;;;;;;;1.70;1.60;;;25.50;99.90;;;;;;6238519;27;90112;-67
2023/08/27 10:42:40;;;;;;;2.47;1.50;;;25.50;99.90;;;;;;6240570;27;89131;-67
2023/08/27 10:45:43;;;;;;;1.70;1.60;;;25.50;99.90;;;;;;6252983;27;90141;-67
2023/08/27 10:48:50;;;;;;;1.77;1.55;;;25.50;99.90;;;;;;6240232;27;89272;-67
2023/08/27 10:51:52;;;;;;;3.28;1.75;;;25.50;99.90;;;;;;6241077;27;89060;-67
2023/08/27 10:55:01;;;;;;;3.80;2.08;;;25.50;99.90;;;;;;6245478;27;87976;-68
2023/08/27 10:58:16;;;;;;;2.78;2.13;;;25.50;99.90;;;;;;6246634;27;89066;-67
2023/08/27 11:01:20;;;;;;;2.83;2.20;;;25.50;99.90;;;;;;6248284;27;89770;-67
2023/08/27 11:04:33;;;;;;;5.88;1.98;;;25.50;99.90;;;;;;6255128;27;89334;-67
2023/08/27 11:07:35;;;;;;;1.50;1.40;;;25.50;99.90;;;;;;6253065;27;89318;-68
2023/08/27 11:10:40;;;;;;;4.38;2.10;;;25.50;99.90;;;;;;6254125;27;91713;-68
2023/08/27 11:13:44;;;;;;;1.73;1.63;;;25.50;99.90;;;;;;6238383;27;89141;-68
2023/08/27 11:16:53;;;;;;;2.67;1.65;;;25.50;99.90;;;;;;6249238;27;87953;-68
2023/08/27 11:19:57;;;;;;;1.70;1.60;;;25.50;99.90;;;;;;6246427;27;89211;-68
2023/08/27 11:23:00;;;;;;;2.25;1.70;;;25.50;99.90;;;;;;6240296;28;89172;-68
2023/08/27 11:26:03;;;;;;;1.70;1.60;;;25.50;99.90;;;;;;6241383;28;89283;-68
2023/08/27 11:29:05;;;;;;;1.63;1.52;;;25.40;99.90;;;;;;6247853;28;88129;-67
2023/08/27 11:32:09;;;;;;;1.85;1.50;;;25.40;99.90;;;;;;6239915;28;88413;-67
2023/08/27 11:35:14;;;;;;;2.08;1.85;;;25.40;99.90;;;;;;6238515;28;89069;-67
2023/08/27 11:38:16;;;;;;;1.50;1.40;;;25.40;99.90;;;;;;6247276;28;89016;-67
2023/08/27 11:41:18;;;;;;;1.60;1.50;;;25.40;99.90;;;;;;6252182;27;90139;-67
2023/08/27 11:44:20;;;;;;;1.92;1.83;;;25.40;99.90;;;;;;6244740;28;88760;-68
2023/08/27 11:47:24;;;;;;;2.38;1.80;;;25.40;99.90;;;;;;6240172;28;89224;-68
2023/08/27 11:50:27;;;;;;;1.83;1.58;;;25.40;99.90;;;;;;6246525;28;88245;-67
2023/08/27 11:53:29;;;;;;;1.95;1.80;;;25.40;99.90;;;;;;6246925;27;89111;-67
2023/08/27 11:56:32;;;;;;;2.63;1.98;;;25.40;99.90;;;;;;6249414;28;89574;-67
2023/08/27 11:59:34;;;;;;;1.60;1.50;;;25.40;99.90;;;;;;6251492;28;89089;-67
2023/08/27 12:02:38;;;;;;;1.60;1.50;;;25.40;99.90;;;;;;6250413;28;88398;-67
2023/08/27 12:05:40;;;;;;;2.75;1.73;;;25.40;99.90;;;;;;6246693;28;89195;-67
2023/08/27 12:08:42;;;;;;;1.80;1.67;;;25.40;99.90;;;;;;6247027;28;89105;-68
2023/08/27 12:11:44;;;;;;;1.80;1.70;;;25.40;99.90;;;;;;6244837;27;89940;-68
2023/08/27 12:14:47;;;;;;;2.33;1.73;;;25.40;99.90;;;;;;6243409;28;89340;-67
2023/08/27 12:17:52;;;;;;;1.98;1.60;;;25.40;99.90;;;;;;6239670;28;89128;-67
2023/08/27 12:20:54;;;;;;;1.60;1.50;;;25.40;99.90;;;;;;6237416;28;89033;-68
2023/08/27 12:23:56;;;;;;;1.63;1.52;;;25.40;99.90;;;;;;6244293;28;89164;-67
2023/08/27 12:27:01;;;;;;;1.60;1.50;;;25.40;99.90;;;;;;6245316;28;88139;-68
2023/08/27 12:30:07;;;;;;;1.52;1.42;;;25.40;99.90;;;;;;6237437;28;89237;-67
2023/08/27 12:33:10;;;;;;;2.08;1.70;;;25.30;99.90;;;;;;6248813;28;88510;-67
2023/08/27 12:36:12;;;;;;;3.00;1.80;;;25.40;99.90;;;;;;6239278;27;89113;-65
2023/08/27 12:39:14;;;;;;;3.40;1.90;;;25.40;99.90;;;;;;6248085;28;87906;-67
2023/08/27 12:42:17;;;;;;;2.88;2.05;;;25.40;99.90;;;;;;6252048;28;89964;-67
2023/08/27 12:45:19;;;;;;;3.28;1.95;;;25.40;99.90;;;;;;6240568;28;88966;-67
2023/08/27 12:48:23;;;;;;;5.93;2.45;;;25.40;99.90;;;;;;6249146;27;89212;-66
2023/08/27 12:51:25;;;;;;;4.28;2.00;;;25.40;99.90;;;;;;6245181;28;89096;-67
2023/08/27 12:54:27;;;;;;;3.80;2.10;;;25.40;99.90;;;;;;6233674;28;89187;-67
2023/08/27 12:57:29;;;;;;;3.35;2.20;;;25.40;99.90;;;;;;6235162;28;89401;-65
2023/08/27 13:00:33;;;;;;;3.22;2.28;;;25.40;99.90;;;;;;6248323;28;88977;-67
2023/08/27 13:03:39;;;;;;;3.72;2.30;;;25.40;99.90;;;;;;6234389;28;87585;-67
2023/08/27 13:06:44;;;;;;;5.05;2.53;;;25.30;99.90;;;;;;6242586;28;87977;-67
2023/08/27 13:09:48;;;;;;;2.90;2.60;;;25.40;99.90;;;;;;6246703;28;88172;-67
2023/08/27 13:12:51;;;;;;;5.40;2.90;;;25.40;99.90;;;;;;6247611;27;88919;-67
2023/08/27 13:15:56;;;;;;;3.97;3.10;;;25.30;99.90;;;;;;6248144;28;88751;-67
2023/08/27 13:19:01;;;;;;;4.35;3.00;;;25.30;99.90;;;;;;6238604;28;88211;-67
2023/08/27 13:22:06;;;;;;;3.38;3.00;;;25.40;99.90;;;;;;6232397;28;87965;-67
2023/08/27 13:25:11;;;;;;;4.60;3.30;;;25.40;99.90;;;;;;6248149;28;88217;-67
2023/08/27 13:28:15;;;;;;;4.90;3.30;;;25.30;99.90;;;;;;6246323;28;88056;-67
2023/08/27 13:31:18;;;;;;;4.70;3.35;;;25.40;99.90;;;;;;6243286;28;87888;-67
2023/08/27 13:34:24;;;;;;;3.88;3.10;;;25.40;99.90;;;;;;6246608;28;87278;-67
2023/08/27 13:37:28;;;;;;;3.83;3.10;;;25.40;99.90;;;;;;6242996;28;87641;-67
2023/08/27 13:40:31;;;;;;;3.65;3.25;;;25.40;99.90;;;;;;6244181;28;88692;-67
2023/08/27 13:43:35;;;;;;;4.03;3.58;;;25.40;99.90;;;;;;6239344;27;88830;-67
2023/08/27 13:46:39;;;;;;;4.35;3.40;;;25.40;99.90;;;;;;6248674;27;88473;-68
2023/08/27 13:49:44;;;;;;;5.28;3.70;;;25.40;99.90;;;;;;6243501;27;88016;-68
2023/08/27 13:52:48;;;;;;;5.57;3.72;;;25.40;99.90;;;;;;6242681;28;88425;-68
2023/08/27 13:55:52;;;;;;;5.65;4.20;;;25.40;99.90;;;;;;6241140;28;88041;-68
2023/08/27 13:58:55;;;;;;;4.78;3.60;;;25.40;99.90;;;;;;6243302;28;88693;-68
2023/08/27 14:01:59;;;;;;;4.25;3.78;;;25.40;99.90;;;;;;6248223;27;88200;-68
2023/08/27 14:05:05;;;;;;;6.03;4.05;;;25.40;99.90;;;;;;6235080;28;87879;-68
2023/08/27 14:08:08;;;;;;;4.10;3.63;;;25.40;99.90;;;;;;6238321;27;88483;-68
2023/08/27 14:11:12;;;;;;;3.67;3.35;;;25.40;99.90;;;;;;6244261;28;88362;-68
2023/08/27 14:14:16;;;;;;;4.50;3.90;;;25.30;99.90;;;;;;6238456;28;88125;-68
2023/08/27 14:17:20;;;;;;;4.50;3.60;;;25.30;99.90;;;;;;6242129;28;88618;-68
2023/08/27 14:20:25;;;;;;;4.72;3.60;;;25.30;99.90;;;;;;6230452;28;89138;-68
2023/08/27 14:23:29;;;;;;;4.65;3.55;;;25.30;99.90;;;;;;6237919;28;88047;-68
2023/08/27 14:26:35;;;;;;;3.72;3.20;;;25.40;99.90;;;;;;6244521;28;88129;-68
2023/08/27 14:29:41;;;;;;;5.97;4.30;;;25.40;99.90;;;;;;6231880;28;88142;-67
2023/08/27 14:32:44;;;;;;;3.85;3.22;;;25.40;99.90;;;;;;6243238;27;88765;-68
2023/08/27 14:35:49;;;;;;;4.40;3.50;;;25.30;99.90;;;;;;6236460;28;87109;-70
2023/08/27 14:38:53;;;;;;;4.03;2.88;;;25.30;99.90;;;;;;6238897;28;88105;-66
2023/08/27 14:41:57;;;;;;;5.97;2.97;;;25.30;99.90;;;;;;6241074;28;87697;-67
2023/08/27 14:45:01;;;;;;;4.07;2.90;;;25.30;99.90;;;;;;6231761;27;90347;-68
2023/08/27 14:48:05;;;;;;;5.85;3.30;;;25.30;99.90;;;;;;6242584;28;87478;-67
2023/08/27 14:51:11;;;;;;;4.03;3.00;;;25.30;99.90;;;;;;6240657;27;88033;-67
2023/08/27 14:54:14;;;;;;;4.25;3.50;;;25.30;99.90;;;;;;6230755;28;88457;-67
2023/08/27 14:57:18;;;;;;;6.03;3.40;;;25.30;99.90;;;;;;6247344;28;88027;-67
2023/08/27 15:00:22;;;;;;;3.67;2.90;;;25.30;99.90;;;;;;6251528;27;88048;-67
2023/08/27 15:03:25;;;;;;;2.95;2.63;;;25.30;99.90;;;;;;6246320;28;88226;-67
2023/08/27 15:06:31;;;;;;;3.33;2.85;;;25.30;99.90;;;;;;6251242;28;87311;-67
2023/08/27 15:09:35;;;;;;;4.22;2.75;;;25.30;99.90;;;;;;6236275;28;89222;-67
2023/08/27 15:12:38;;;;;;;3.47;2.80;;;25.30;99.90;;;;;;6250048;28;88970;-67
2023/08/27 15:15:42;;;;;;;3.25;2.83;;;25.30;99.90;;;;;;6248249;27;89734;-67
2023/08/27 15:18:46;;;;;;;3.83;2.75;;;25.30;99.90;;;;;;6244179;27;88093;-67
2023/08/27 15:21:51;;;;;;;2.78;2.42;;;25.30;99.90;;;;;;6251143;27;88271;-67
2023/08/27 15:24:55;;;;;;;3.85;2.30;;;25.30;99.90;;;;;;6252826;27;87157;-65
2023/08/27 15:27:58;;;;;;;3.83;2.90;;;25.30;99.90;;;;;;6253538;27;90652;-66
2023/08/27 15:31:03;;;;;;;3.42;2.63;;;25.30;99.90;;;;;;6252083;27;88057;-65
2023/08/27 15:34:08;;;;;;;2.85;2.50;;;25.30;99.90;;;;;;6237608;27;88378;-67
2023/08/27 15:37:14;;;;;;;2.97;2.40;;;25.30;99.90;;;;;;6255246;27;87755;-67
2023/08/27 15:40:17;;;;;;;2.78;2.38;;;25.30;99.90;;;;;;6233247;27;88029;-67
2023/08/27 15:43:31;;;;;;;2.97;2.20;;;25.30;99.90;;;;;;6246091;27;89356;-67
2023/08/27 15:46:35;;;;;;;2.92;2.17;;;25.20;99.90;;;;;;6241316;27;88983;-67
2023/08/27 15:49:39;;;;;;;3.28;2.55;;;25.20;99.90;;;;;;6251645;27;88034;-67
2023/08/27 15:52:44;;;;;;;2.58;2.35;;;25.20;99.90;;;;;;6247824;27;88227;-67